TimeCST,TemperatureF,Dew PointF,Humidity,Sea Level PressureIn,VisibilityMPH,Wind Direction,Wind SpeedMPH,Gust SpeedMPH,PrecipitationIn,Events,Conditions,WindDirDegrees,DateUTC
12:15 AM,17.6,7.5,65,30.16,10.0,SSE,6.9,-,N/A,,Clear,160,2013-01-25 06:15:00
12:35 AM,17.4,7.2,64,30.16,10.0,SSE,4.6,-,N/A,,Clear,160,2013-01-25 06:35:00
12:55 AM,16.0,7.2,68,30.15,10.0,SSE,4.6,-,N/A,,Clear,150,2013-01-25 06:55:00
1:15 AM,15.6,7.3,70,30.13,10.0,South,4.6,-,N/A,,Clear,170,2013-01-25 07:15:00
1:35 AM,14.2,7.2,74,30.13,10.0,South,5.8,-,N/A,,Clear,170,2013-01-25 07:35:00
1:55 AM,14.5,7.5,74,30.14,10.0,Calm,Calm,-,N/A,,Clear,0,2013-01-25 07:55:00
2:15 AM,15.6,7.2,69,30.14,10.0,Calm,Calm,-,N/A,,Clear,0,2013-01-25 08:15:00
2:35 AM,15.6,6.8,68,30.13,10.0,SSW,4.6,-,N/A,,Clear,210,2013-01-25 08:35:00
2:55 AM,16.0,7.5,69,30.13,10.0,SW,3.5,-,N/A,,Clear,230,2013-01-25 08:55:00
3:15 AM,14.9,7.3,72,30.13,10.0,SW,3.5,-,N/A,,Clear,230,2013-01-25 09:15:00
3:35 AM,15.1,7.3,71,30.12,10.0,SW,4.6,-,N/A,,Clear,220,2013-01-25 09:35:00
3:55 AM,15.3,7.0,70,30.12,10.0,SW,4.6,-,N/A,,Clear,220,2013-01-25 09:55:00
4:15 AM,13.3,6.4,74,30.10,10.0,SSW,3.5,-,N/A,,Clear,200,2013-01-25 10:15:00
4:35 AM,14.4,6.8,72,30.10,10.0,Calm,Calm,-,N/A,,Clear,0,2013-01-25 10:35:00
4:55 AM,14.9,7.7,73,30.10,10.0,SW,4.6,-,N/A,,Clear,230,2013-01-25 10:55:00
5:15 AM,15.4,7.7,71,30.10,10.0,SW,4.6,-,N/A,,Clear,230,2013-01-25 11:15:00
5:35 AM,15.6,7.7,71,30.10,10.0,WSW,3.5,-,N/A,,Clear,240,2013-01-25 11:35:00
5:55 AM,15.4,8.1,73,30.11,10.0,Calm,Calm,-,N/A,,Clear,0,2013-01-25 11:55:00
6:15 AM,15.3,8.4,74,30.11,10.0,Calm,Calm,-,N/A,,Clear,0,2013-01-25 12:15:00
6:35 AM,15.8,9.3,76,30.12,10.0,Calm,Calm,-,N/A,,Clear,0,2013-01-25 12:35:00
6:55 AM,16.9,10.4,76,30.12,10.0,WNW,3.5,-,N/A,,Clear,290,2013-01-25 12:55:00
7:35 AM,18.0,12.2,78,30.13,10.0,West,3.5,-,N/A,,Clear,270,2013-01-25 13:35:00
7:55 AM,19.0,13.3,78,30.13,10.0,West,3.5,-,N/A,,Clear,260,2013-01-25 13:55:00
8:15 AM,20.3,13.8,76,30.14,10.0,Calm,Calm,-,N/A,,Clear,0,2013-01-25 14:15:00
8:35 AM,21.4,16.0,80,30.14,10.0,Calm,Calm,-,N/A,,Clear,0,2013-01-25 14:35:00
8:55 AM,23.4,16.2,74,30.15,10.0,Calm,Calm,-,N/A,,Clear,0,2013-01-25 14:55:00
9:15 AM,23.9,17.2,76,30.15,10.0,Calm,Calm,-,N/A,,Clear,0,2013-01-25 15:15:00
9:35 AM,26.6,18.5,71,30.16,10.0,Calm,Calm,-,N/A,,Clear,0,2013-01-25 15:35:00
9:55 AM,30.2,20.7,68,30.16,10.0,Calm,Calm,-,N/A,,Clear,0,2013-01-25 15:55:00
10:15 AM,32.9,22.5,65,30.17,10.0,Calm,Calm,-,N/A,,Clear,0,2013-01-25 16:15:00
10:35 AM,35.8,23.5,61,30.18,10.0,NW,3.5,-,N/A,,Clear,310,2013-01-25 16:35:00
10:55 AM,38.7,24.4,57,30.19,10.0,West,4.6,-,N/A,,Clear,270,2013-01-25 16:55:00
11:15 AM,42.3,25.3,51,30.19,10.0,WNW,9.2,-,N/A,,Clear,300,2013-01-25 17:15:00
11:35 AM,43.2,25.5,50,30.19,10.0,NNW,11.5,-,N/A,,Clear,330,2013-01-25 17:35:00
11:55 AM,44.6,25.7,48,30.17,10.0,NNW,13.8,17.3,N/A,,Clear,330,2013-01-25 17:55:00
12:15 PM,44.6,25.3,47,30.17,10.0,NW,10.4,-,N/A,,Clear,320,2013-01-25 18:15:00
12:35 PM,45.9,26.4,47,30.16,10.0,NNW,12.7,16.1,N/A,,Clear,330,2013-01-25 18:35:00
12:55 PM,46.4,26.4,46,30.16,10.0,NW,9.2,-,N/A,,Clear,310,2013-01-25 18:55:00
1:15 PM,46.8,26.4,45,30.14,10.0,NNW,12.7,-,N/A,,Clear,340,2013-01-25 19:15:00
1:35 PM,48.0,26.4,43,30.14,10.0,North,9.2,-,N/A,,Clear,350,2013-01-25 19:35:00
1:55 PM,48.2,26.8,43,30.13,10.0,NNW,10.4,-,N/A,,Clear,340,2013-01-25 19:55:00
2:15 PM,48.2,26.6,43,30.13,10.0,North,10.4,-,N/A,,Clear,350,2013-01-25 20:15:00
2:35 PM,48.4,26.1,42,30.12,10.0,North,11.5,-,N/A,,Clear,350,2013-01-25 20:35:00
2:55 PM,48.6,25.9,41,30.12,10.0,NNW,10.4,-,N/A,,Clear,340,2013-01-25 20:55:00
3:15 PM,48.7,25.2,40,30.14,10.0,NNW,6.9,-,N/A,,Clear,340,2013-01-25 21:15:00
3:35 PM,48.6,25.9,41,30.14,10.0,North,10.4,-,N/A,,Clear,350,2013-01-25 21:35:00
3:55 PM,48.2,26.6,43,30.14,10.0,North,8.1,-,N/A,,Clear,350,2013-01-25 21:55:00
4:15 PM,47.7,27.5,46,30.15,10.0,North,6.9,-,N/A,,Clear,350,2013-01-25 22:15:00
4:35 PM,45.3,29.3,54,30.15,10.0,North,8.1,-,N/A,,Clear,360,2013-01-25 22:35:00
4:55 PM,43.2,29.7,59,30.16,10.0,North,6.9,-,N/A,,Clear,10,2013-01-25 22:55:00
5:15 PM,40.5,29.1,64,30.16,10.0,North,6.9,-,N/A,,Clear,10,2013-01-25 23:15:00
5:35 PM,39.0,27.9,64,30.16,10.0,NNE,10.4,-,N/A,,Clear,20,2013-01-25 23:35:00
5:55 PM,37.6,27.9,68,30.16,10.0,NNE,8.1,-,N/A,,Clear,20,2013-01-25 23:55:00
6:15 PM,36.7,27.5,69,30.17,10.0,NNE,8.1,-,N/A,,Clear,20,2013-01-26 00:15:00
6:35 PM,34.3,27.3,76,30.18,10.0,NE,4.6,-,N/A,,Clear,40,2013-01-26 00:35:00
6:55 PM,33.3,26.6,77,30.19,10.0,Calm,Calm,-,N/A,,Clear,0,2013-01-26 00:55:00
7:15 PM,34.0,27.3,77,30.19,10.0,NE,5.8,-,N/A,,Clear,40,2013-01-26 01:15:00
7:35 PM,32.5,26.6,79,30.19,10.0,Calm,Calm,-,N/A,,Clear,0,2013-01-26 01:35:00
7:55 PM,30.9,26.2,83,30.20,10.0,Calm,Calm,-,N/A,,Clear,0,2013-01-26 01:55:00
8:15 PM,31.3,26.2,82,30.20,10.0,Calm,Calm,-,N/A,,Clear,0,2013-01-26 02:15:00
8:35 PM,31.1,25.5,80,30.22,10.0,Calm,Calm,-,N/A,,Clear,0,2013-01-26 02:35:00
8:55 PM,32.0,26.1,79,30.21,10.0,North,4.6,-,N/A,,Clear,360,2013-01-26 02:55:00
9:15 PM,30.6,25.5,82,30.21,10.0,North,4.6,-,N/A,,Clear,10,2013-01-26 03:15:00
9:35 PM,28.4,24.8,86,30.22,10.0,NNE,3.5,-,N/A,,Clear,30,2013-01-26 03:35:00
9:55 PM,30.0,25.3,83,30.22,10.0,NE,5.8,-,N/A,,Clear,40,2013-01-26 03:55:00
10:15 PM,28.4,24.6,86,30.22,10.0,NE,5.8,-,N/A,,Clear,40,2013-01-26 04:15:00
10:35 PM,28.6,24.8,86,30.22,10.0,NE,5.8,-,N/A,,Clear,40,2013-01-26 04:35:00
10:55 PM,27.3,23.9,87,30.22,10.0,NE,5.8,-,N/A,,Clear,50,2013-01-26 04:55:00
11:15 PM,27.0,23.5,87,30.22,10.0,NE,6.9,-,N/A,,Clear,40,2013-01-26 05:15:00
11:35 PM,27.1,23.4,86,30.23,10.0,NE,9.2,-,N/A,,Clear,40,2013-01-26 05:35:00
11:55 PM,26.2,22.5,86,30.24,10.0,NE,9.2,-,N/A,,Clear,40,2013-01-26 05:55:00